createdAt,value
2019-03-23T00:04:40.456Z,93.432617
2019-03-23T00:10:03.858Z,94.403076
2019-03-23T00:15:26.513Z,95.269775
2019-03-23T00:20:49.212Z,95.928955
2019-03-23T00:26:13.306Z,96.905518
2019-03-23T00:31:34.521Z,97.937012
2019-03-23T00:36:57.223Z,97.625732
2019-03-23T00:42:20.576Z,97.979736
2019-03-23T00:47:43.260Z,99.182129
2019-03-23T00:53:05.983Z,93.902588
2019-03-23T00:58:29.497Z,88.452148
2019-03-23T01:03:52.154Z,86.053467
2019-03-23T01:09:14.824Z,86.706543
2019-03-23T01:14:37.475Z,89.416504
2019-03-23T01:20:00.400Z,87.878418
2019-03-23T01:25:22.840Z,89.459229
2019-03-23T01:30:45.521Z,90.380859
2019-03-23T01:36:08.615Z,90.380859
2019-03-23T01:41:31.270Z,91.204834
2019-03-23T01:46:53.948Z,93.243408
2019-03-23T01:52:16.585Z,94.268799
2019-03-23T01:57:39.308Z,95.593262
2019-03-23T02:03:02.023Z,96.875
2019-03-23T02:08:24.759Z,98.00415
2019-03-23T02:13:47.476Z,98.876953
2019-03-23T02:19:10.168Z,99.700928
2019-03-23T02:24:33.122Z,99.993896
2019-03-23T02:29:55.854Z,99.993896
2019-03-23T02:35:18.633Z,99.993896
2019-03-23T02:40:41.343Z,99.993896
2019-03-23T02:46:04.069Z,99.987793
2019-03-23T02:51:26.732Z,99.993896
2019-03-23T02:56:49.414Z,99.993896
2019-03-23T03:02:12.106Z,99.993896
2019-03-23T03:07:41.605Z,99.993896
2019-03-23T03:12:58.468Z,99.993896
2019-03-23T03:18:21.749Z,99.993896
2019-03-23T03:23:44.452Z,99.993896
2019-03-23T03:29:07.138Z,99.993896
2019-03-23T03:34:29.888Z,99.993896
2019-03-23T03:39:52.603Z,99.993896
2019-03-23T03:45:15.335Z,99.993896
2019-03-23T03:50:38.035Z,99.993896
2019-03-23T03:56:00.781Z,99.993896
2019-03-23T04:01:24.955Z,99.993896
2019-03-23T04:06:47.643Z,99.993896
2019-03-23T04:12:10.347Z,99.993896
2019-03-23T04:17:33.063Z,99.993896
2019-03-23T04:22:55.739Z,99.993896
2019-03-23T04:28:18.464Z,99.993896
2019-03-23T04:33:41.125Z,99.993896
2019-03-23T04:39:03.788Z,99.993896
2019-03-23T04:44:26.591Z,99.993896
2019-03-23T04:49:49.281Z,99.993896
2019-03-23T04:55:11.993Z,99.993896
2019-03-23T05:00:34.684Z,99.993896
2019-03-23T05:05:58.265Z,99.993896
2019-03-23T05:11:20.984Z,99.993896
2019-03-23T05:16:43.716Z,99.993896
2019-03-23T05:22:06.371Z,99.993896
2019-03-23T05:27:29.063Z,99.993896
2019-03-23T05:32:51.708Z,99.993896
2019-03-23T05:38:14.428Z,99.993896
2019-03-23T05:43:37.127Z,99.993896
2019-03-23T05:48:59.828Z,99.993896
2019-03-23T05:54:22.510Z,99.194336
2019-03-23T05:59:45.266Z,99.768066
2019-03-23T06:05:07.894Z,99.456787
2019-03-23T06:10:30.564Z,99.249268
2019-03-23T06:15:53.239Z,99.414062
2019-03-23T06:21:16.079Z,98.687744
2019-03-23T06:26:38.845Z,98.54126
2019-03-23T06:32:02.395Z,98.126221
2019-03-23T06:37:25.075Z,97.406006
2019-03-23T06:42:47.765Z,96.685791
2019-03-23T06:48:11.619Z,96.435547
2019-03-23T06:53:34.665Z,96.124268
2019-03-23T06:58:57.809Z,96.282959
2019-03-23T07:04:20.815Z,95.458984
2019-03-23T07:09:43.851Z,95.355225
2019-03-23T07:15:06.675Z,94.696045
2019-03-23T07:20:30.517Z,94.696045
2019-03-23T07:25:53.195Z,94.445801
2019-03-23T07:31:15.886Z,93.829346
2019-03-23T07:36:38.564Z,94.030762
2019-03-23T07:42:01.211Z,93.682861
2019-03-23T07:47:23.926Z,92.858887
2019-03-23T07:52:46.601Z,93.060303
2019-03-23T07:58:09.243Z,91.888428
2019-03-23T08:03:31.892Z,91.229248
2019-03-23T08:08:54.535Z,91.394043
2019-03-23T08:14:17.422Z,90.155029
2019-03-23T08:19:40.173Z,89.190674
2019-03-23T08:25:02.957Z,89.501953
2019-03-23T08:30:25.662Z,89.025879
2019-03-23T08:35:48.314Z,89.190674
2019-03-23T08:41:10.973Z,87.878418
2019-03-23T08:46:33.793Z,86.297607
2019-03-23T08:51:56.533Z,86.053467
2019-03-23T08:57:19.266Z,84.783936
2019-03-23T09:02:42.003Z,85.498047
2019-03-23T09:08:04.714Z,87.036133
2019-03-23T09:13:27.444Z,83.551025
2019-03-23T09:18:51.157Z,85.803223
2019-03-23T09:24:13.835Z,85.705566
2019-03-23T09:29:36.570Z,87.896729
2019-03-23T09:34:59.223Z,85.089111
2019-03-23T09:40:22.113Z,83.331299
2019-03-23T09:45:44.810Z,83.972168
2019-03-23T09:51:07.757Z,81.207275
2019-03-23T09:56:29.644Z,82.373047
2019-03-23T10:01:52.575Z,83.392334
2019-03-23T10:07:17.265Z,82.336426
2019-03-23T10:12:40.795Z,81.170654
2019-03-23T10:18:06.503Z,81.719971
2019-03-23T10:23:28.689Z,82.25708
2019-03-23T10:28:51.870Z,80.377197
2019-03-23T10:34:16.545Z,80.548096
2019-03-23T10:39:40.106Z,80.548096
2019-03-23T10:45:03.439Z,77.038574
2019-03-23T10:50:29.006Z,77.545166
2019-03-23T10:55:52.229Z,75.946045
2019-03-23T11:01:15.391Z,81.365967
2019-03-23T11:06:38.737Z,78.808594
2019-03-23T11:12:00.812Z,77.34375
2019-03-23T11:17:23.948Z,75.744629
2019-03-23T11:22:46.752Z,77.581787
2019-03-23T11:28:09.588Z,76.5625
2019-03-23T11:33:33.720Z,77.514648
2019-03-23T11:38:58.341Z,79.46167
2019-03-23T11:44:21.507Z,77.752686
2019-03-23T11:49:42.820Z,78.22876
2019-03-23T11:55:04.896Z,76.904297
2019-03-23T12:00:28.991Z,77.069092
2019-03-23T12:05:52.027Z,79.248047
2019-03-23T12:11:15.854Z,79.730225
2019-03-23T12:16:38.997Z,79.486084
2019-03-23T12:22:02.404Z,75.775146
2019-03-23T12:27:30.029Z,79.174805
2019-03-23T12:32:53.824Z,76.385498
2019-03-23T12:38:15.967Z,78.265381
2019-03-23T12:43:39.831Z,79.449463
2019-03-23T12:49:03.751Z,80.877686
2019-03-23T12:54:26.943Z,80.914307
2019-03-23T12:59:49.943Z,78.33252
2019-03-23T13:05:12.774Z,80.163574
2019-03-23T13:10:35.045Z,78.930664
2019-03-23T13:15:57.276Z,79.272461
2019-03-23T13:21:20.125Z,78.90625
2019-03-23T13:26:42.839Z,78.460693
2019-03-23T13:32:05.506Z,78.460693
2019-03-23T13:37:28.229Z,77.746582
2019-03-23T13:42:50.850Z,77.746582
2019-03-23T13:48:13.528Z,77.23999
2019-03-23T13:53:37.716Z,78.393555
2019-03-23T13:58:58.897Z,79.962158
2019-03-23T14:04:21.596Z,81.634521
2019-03-23T14:09:44.319Z,79.486084
2019-03-23T14:15:07.017Z,80.511475
2019-03-23T14:20:29.694Z,81.018066
2019-03-23T14:25:52.445Z,82.080078
2019-03-23T14:31:15.088Z,83.203125
2019-03-23T14:36:37.843Z,82.58667
2019-03-23T14:42:04.730Z,83.099365
2019-03-23T14:47:23.352Z,82.995605
2019-03-23T14:52:46.044Z,83.953857
2019-03-23T14:58:08.806Z,84.667969
2019-03-23T15:03:31.477Z,85.119629
2019-03-23T15:08:54.105Z,86.651611
2019-03-23T15:14:16.844Z,86.694336
2019-03-23T15:19:40.477Z,89.862061
2019-03-23T15:25:03.970Z,91.333008
2019-03-23T15:30:26.687Z,91.394043
2019-03-23T15:35:49.404Z,90.881348
2019-03-23T15:41:12.090Z,90.924072
2019-03-23T15:46:34.762Z,91.540527
2019-03-23T15:51:57.486Z,92.150879
2019-03-23T15:57:20.250Z,92.559814
2019-03-23T16:02:42.964Z,93.52417
2019-03-23T16:08:05.615Z,94.750977
2019-03-23T16:13:28.378Z,96.276855
2019-03-23T16:18:51.053Z,97.711182
2019-03-23T16:24:13.890Z,98.223877
2019-03-23T16:29:36.607Z,98.120117
2019-03-23T16:34:59.271Z,98.016357
2019-03-23T16:40:23.557Z,97.711182
2019-03-23T16:45:46.561Z,97.503662
2019-03-23T16:51:09.235Z,96.990967
2019-03-23T16:56:31.866Z,97.503662
2019-03-23T17:01:54.533Z,96.118164
2019-03-23T17:07:18.191Z,95.76416
2019-03-23T17:12:41.832Z,95.397949
2019-03-23T17:18:05.522Z,94.372559
2019-03-23T17:23:28.155Z,94.989014
2019-03-23T17:28:50.904Z,95.092773
2019-03-23T17:34:13.572Z,94.683838
2019-03-23T17:39:36.206Z,94.171143
2019-03-23T17:44:58.913Z,92.779541
2019-03-23T17:50:21.688Z,90.83252
2019-03-23T17:55:44.368Z,89.746094
2019-03-23T18:01:07.051Z,89.886475
2019-03-23T18:06:30.683Z,89.373779
2019-03-23T18:11:53.331Z,88.348389
2019-03-23T18:17:16.013Z,88.903809
2019-03-23T18:22:38.775Z,89.111328
2019-03-23T18:28:01.829Z,89.147949
2019-03-23T18:33:24.488Z,90.258789
2019-03-23T18:38:47.151Z,89.746094
2019-03-23T18:44:15.965Z,89.746094
2019-03-23T18:49:32.456Z,90.917969
2019-03-23T18:54:55.084Z,91.375732
2019-03-23T19:00:17.818Z,92.095947
2019-03-23T19:05:40.452Z,92.608643
2019-03-23T19:11:03.165Z,92.712402
2019-03-23T19:16:25.826Z,93.475342
2019-03-23T19:21:49.602Z,94.958496
2019-03-23T19:27:12.317Z,95.831299
2019-03-23T19:32:35.880Z,96.655273
2019-03-23T19:37:59.230Z,97.314453
2019-03-23T19:43:21.958Z,98.034668
2019-03-23T19:48:45.469Z,97.259521
2019-03-23T19:54:08.208Z,97.44873
2019-03-23T19:59:31.020Z,99.414062
2019-03-23T20:04:52.779Z,99.993896
2019-03-23T20:10:15.705Z,99.993896
2019-03-23T20:15:38.857Z,96.917725
2019-03-23T20:21:01.882Z,96.032715
2019-03-23T20:26:24.624Z,94.903564
2019-03-23T20:31:47.329Z,94.488525
2019-03-23T20:37:10.307Z,93.249512
2019-03-23T20:42:33.015Z,93.64624
2019-03-23T20:47:55.881Z,94.665527
2019-03-23T20:53:18.631Z,95.635986
2019-03-23T20:58:41.400Z,94.812012
2019-03-23T21:04:04.067Z,95.019531
2019-03-23T21:09:26.793Z,95.88623
2019-03-23T21:14:49.416Z,94.396973
2019-03-23T21:20:13.237Z,95.428467
2019-03-23T21:25:35.919Z,95.269775
2019-03-23T21:31:08.560Z,96.447754
2019-03-23T21:36:31.400Z,98.205566
2019-03-23T21:41:54.041Z,97.540283
2019-03-23T21:47:17.537Z,97.790527
2019-03-23T21:52:40.222Z,98.101807
2019-03-23T21:58:03.062Z,98.620605
2019-03-23T22:03:26.538Z,98.162842
2019-03-23T22:08:50.548Z,98.205566
2019-03-23T22:14:13.297Z,98.309326
2019-03-23T22:19:36.161Z,98.413086
2019-03-23T22:24:59.401Z,98.205566
2019-03-23T22:30:22.068Z,97.894287
2019-03-23T22:35:45.667Z,97.381592
2019-03-23T22:41:08.265Z,96.343994
2019-03-23T22:46:30.928Z,96.240234
2019-03-23T22:51:53.581Z,95.41626
2019-03-23T22:57:17.228Z,95.3125
2019-03-23T23:02:39.887Z,95.623779
2019-03-23T23:08:02.573Z,96.081543
2019-03-23T23:13:25.219Z,96.490479
2019-03-23T23:18:48.780Z,96.643066
2019-03-23T23:24:11.967Z,96.124268
2019-03-23T23:29:35.083Z,96.270752
2019-03-23T23:34:57.831Z,95.751953
2019-03-23T23:40:20.487Z,94.98291
2019-03-23T23:45:43.158Z,94.720459
2019-03-23T23:51:06.460Z,94.616699
2019-03-23T23:56:29.611Z,94.927979
